Livermore Falls, Maine
Current Conditions -  °F | °C
As of 12:53 PM on Thursday 29 Jan 2015 (Local Time) from KAUG Reporting Station
Clear Clear  
Wind Chill: 26°   Ceiling: Unl
Heat Index: 26°   Visibility: 10mi
Dew Point:   Wind: 0mph
Humidity: 32%   Direction: NA
Pressure: 30.22"   Gusts: NA
Location:  44.48°N, 70.19°W
Report Text: KAUG 291753Z AUTO 00000KT 10SM CLR M03/M18 A3022 RMK AO2 SLP241 T10331178 11033 21189 58024
Loading
Personal Weather Stations






























Interactive Weather Map New forecast layout! Learn more

10-Day Weather Forecast

Advertisements
Track Severe Weather on mobile